Time;durP1;ratioP1;P1;durP2;ratioP2;P2;SDS_P1;SDS_P2;PMS_P1;PMS_P2;Temp;Humidity;BMP_temperature;BMP_pressure;BME280_temperature;BME280_humidity;BME280_pressure;Samples;Min_cycle;Max_cycle;Signal;HPM_P1;HPM_P2
2021/07/27 00:00:15;;;;;;;0.40;0.40;;;;;;;15.73;88.72;96828.03;29394;199;64009;-63
2021/07/27 00:00:46;;;;;;;0.40;0.40;;;;;;;15.74;88.72;96823.34;29395;269;63016;-63
2021/07/27 00:01:17;;;;;;;0.40;0.40;;;;;;;15.74;88.70;96828.81;29395;259;63005;-65
2021/07/27 00:01:48;;;;;;;0.40;0.40;;;;;;;15.75;88.81;96830.44;29395;196;63009;-63
2021/07/27 00:02:19;;;;;;;0.40;0.40;;;;;;;15.74;88.68;96823.34;29395;221;63004;-64
2021/07/27 00:02:51;;;;;;;0.40;0.40;;;;;;;15.74;88.74;96826.09;29395;354;63009;-65
2021/07/27 00:03:25;;;;;;;0.40;0.40;;;;;;;15.73;88.68;96821.75;29395;216;63004;-65
2021/07/27 00:03:56;;;;;;;0.45;0.45;;;;;;;15.71;88.71;96822.06;29395;294;63009;-64
2021/07/27 00:04:28;;;;;;;0.40;0.40;;;;;;;15.71;88.80;96829.47;29394;231;64008;-64
2021/07/27 00:04:59;;;;;;;0.40;0.40;;;;;;;15.70;89.04;96827.88;29395;224;63008;-65
2021/07/27 00:05:31;;;;;;;0.40;0.40;;;;;;;15.70;88.97;96830.59;29395;289;63005;-63
2021/07/27 00:06:04;;;;;;;0.40;0.40;;;;;;;15.70;88.88;96833.34;29395;313;63009;-65
2021/07/27 00:06:35;;;;;;;0.50;0.50;;;;;;;15.67;88.64;96834.81;29395;336;63005;-65
2021/07/27 00:07:06;;;;;;;0.40;0.40;;;;;;;15.67;88.93;96823.84;29395;226;63009;-64
2021/07/27 00:07:38;;;;;;;0.40;0.40;;;;;;;15.67;88.94;96826.59;29395;355;63005;-64
2021/07/27 00:08:10;;;;;;;0.50;0.50;;;;;;;15.68;88.94;96830.94;29395;204;63009;-65
2021/07/27 00:08:41;;;;;;;0.50;0.50;;;;;;;15.69;89.02;96827.06;29395;228;63005;-65
2021/07/27 00:09:12;;;;;;;0.43;0.43;;;;;;;15.67;88.95;96829.31;29394;227;64013;-64
2021/07/27 00:09:44;;;;;;;0.50;0.50;;;;;;;15.66;88.93;96827.72;29395;302;63004;-62
2021/07/27 00:10:17;;;;;;;0.40;0.40;;;;;;;15.66;89.00;96824.19;29395;208;63009;-65
2021/07/27 00:10:49;;;;;;;0.40;0.40;;;;;;;15.68;88.95;96832.88;29395;231;63004;-66
2021/07/27 00:11:20;;;;;;;0.50;0.50;;;;;;;15.68;88.96;96824.66;29395;202;63009;-64
2021/07/27 00:11:54;;;;;;;0.50;0.50;;;;;;;15.68;89.12;96827.41;29395;290;63004;-65
2021/07/27 00:12:25;;;;;;;0.40;0.40;;;;;;;15.68;89.03;96824.66;29394;317;63996;-65
2021/07/27 00:12:57;;;;;;;0.40;0.40;;;;;;;15.70;88.76;96822.41;29395;222;63005;-55
2021/07/27 00:13:28;;;;;;;0.40;0.40;;;;;;;15.72;88.83;96820.16;29395;235;63009;-56
2021/07/27 00:13:59;;;;;;;0.40;0.40;;;;;;;15.73;88.60;96816.28;29395;237;63005;-64
2021/07/27 00:14:31;;;;;;;0.40;0.40;;;;;;;15.74;88.45;96815.16;29394;208;64013;-55
2021/07/27 00:15:02;;;;;;;0.43;0.43;;;;;;;15.74;88.39;96826.09;29395;197;63005;-64
2021/07/27 00:15:33;;;;;;;0.40;0.40;;;;;;;15.73;88.36;96821.75;29395;199;63009;-64
2021/07/27 00:16:05;;;;;;;0.43;0.43;;;;;;;15.72;88.49;96815.47;29395;218;63008;-62
2021/07/27 00:16:36;;;;;;;0.65;0.65;;;;;;;15.71;88.62;96813.88;29395;216;63009;-64
2021/07/27 00:17:07;;;;;;;0.50;0.50;;;;;;;15.71;88.78;96810.34;29395;206;63004;-64
2021/07/27 00:17:40;;;;;;;0.50;0.50;;;;;;;15.70;88.96;96812.25;29395;292;63009;-62
2021/07/27 00:18:12;;;;;;;0.50;0.50;;;;;;;15.75;88.72;96814.03;29395;205;63004;-65
2021/07/27 00:18:46;;;;;;;0.43;0.43;;;;;;;15.75;88.09;96819.50;29395;259;63009;-66
2021/07/27 00:19:18;;;;;;;0.50;0.50;;;;;;;15.74;87.86;96823.34;29394;322;64009;-55
2021/07/27 00:19:49;;;;;;;0.50;0.50;;;;;;;15.74;88.01;96820.63;29395;280;63008;-62
2021/07/27 00:20:21;;;;;;;0.40;0.40;;;;;;;15.75;88.12;96824.97;29395;327;63005;-64
2021/07/27 00:20:52;;;;;;;0.47;0.47;;;;;;;15.74;88.18;96818.69;29395;200;63009;-63
2021/07/27 00:21:23;;;;;;;0.50;0.50;;;;;;;15.75;88.32;96816.75;29395;235;63005;-63
2021/07/27 00:21:54;;;;;;;0.50;0.50;;;;;;;15.75;88.24;96823.03;29395;212;63014;-64
2021/07/27 00:22:25;;;;;;;0.47;0.47;;;;;;;15.75;88.24;96819.50;29395;241;63005;-64
2021/07/27 00:22:57;;;;;;;0.40;0.40;;;;;;;15.76;88.23;96821.09;29395;218;63009;-64
2021/07/27 00:23:30;;;;;;;0.40;0.40;;;;;;;15.76;88.14;96821.09;29395;206;63009;-65
2021/07/27 00:24:01;;;;;;;0.50;0.50;;;;;;;15.75;88.22;96819.50;29395;209;63009;-63
2021/07/27 00:24:32;;;;;;;0.50;0.50;;;;;;;15.78;88.31;96829.78;29394;280;64000;-64
2021/07/27 00:25:05;;;;;;;0.50;0.50;;;;;;;15.78;88.13;96821.56;29395;369;63015;-63
2021/07/27 00:25:38;;;;;;;0.40;0.40;;;;;;;15.78;87.94;96824.31;29395;238;63008;-64
2021/07/27 00:26:14;;;;;;;0.40;0.40;;;;;;;15.77;88.05;96822.69;29395;323;63008;-54
2021/07/27 00:26:48;;;;;;;0.45;0.45;;;;;;;15.78;88.21;96823.50;29395;199;63004;-63
2021/07/27 00:27:23;;;;;;;0.50;0.50;;;;;;;15.78;88.10;96818.03;29395;258;63008;-62
2021/07/27 00:27:54;;;;;;;0.45;0.45;;;;;;;15.77;87.91;96821.91;29395;355;63005;-63
2021/07/27 00:28:25;;;;;;;0.40;0.40;;;;;;;15.75;88.17;96817.56;29395;318;63009;-64
2021/07/27 00:28:59;;;;;;;0.40;0.40;;;;;;;15.74;88.23;96809.69;29395;311;63005;-62
2021/07/27 00:29:30;;;;;;;0.40;0.40;;;;;;;15.83;86.75;96810.47;29394;203;64013;-63
2021/07/27 00:30:06;;;;;;;0.40;0.40;;;;;;;15.83;86.27;96815.94;29395;302;63005;-54
2021/07/27 00:30:37;;;;;;;0.40;0.40;;;;;;;15.83;86.31;96810.47;29395;206;63009;-63
2021/07/27 00:31:17;;;;;;;0.40;0.40;;;;;;;15.84;86.35;96816.72;29395;219;63005;-64
2021/07/27 00:31:48;;;;;;;0.50;0.50;;;;;;;15.84;86.52;96811.25;29395;292;63009;-65
2021/07/27 00:32:19;;;;;;;0.40;0.40;;;;;;;15.83;86.65;96810.47;29395;197;63004;-64
2021/07/27 00:32:50;;;;;;;0.50;0.50;;;;;;;15.83;86.81;96815.94;29395;221;63009;-63
2021/07/27 00:33:21;;;;;;;0.50;0.50;;;;;;;15.83;86.59;96813.19;29395;216;63004;-65
2021/07/27 00:33:52;;;;;;;0.47;0.47;;;;;;;15.84;86.64;96812.06;29395;247;63008;-52
2021/07/27 00:34:26;;;;;;;0.45;0.45;;;;;;;15.87;86.37;96810.59;29395;204;63004;-63
2021/07/27 00:34:57;;;;;;;0.40;0.40;;;;;;;15.87;86.41;96816.88;29394;224;64014;-64
2021/07/27 00:35:30;;;;;;;0.40;0.40;;;;;;;15.87;86.54;96816.88;29395;349;63011;-66
2021/07/27 00:36:05;;;;;;;0.50;0.50;;;;;;;15.89;86.58;96814.63;29395;202;63009;-63
2021/07/27 00:36:37;;;;;;;0.47;0.47;;;;;;;15.89;86.63;96811.88;29395;197;63005;-64
2021/07/27 00:37:19;;;;;;;0.40;0.40;;;;;;;15.88;86.67;96812.22;29395;229;63009;-65
2021/07/27 00:38:51;;;;;;;0.50;0.50;;;;;;;15.87;87.00;96814.16;29394;331;64013;-63
2021/07/27 00:39:22;;;;;;;0.40;0.40;;;;;;;15.87;87.08;96811.41;29395;239;63004;-65
2021/07/27 00:39:54;;;;;;;0.40;0.40;;;;;;;15.86;87.19;96815.28;29395;203;63009;-55
2021/07/27 00:40:26;;;;;;;0.40;0.40;;;;;;;15.85;87.12;96810.94;29394;234;64009;-64
2021/07/27 00:40:58;;;;;;;0.40;0.40;;;;;;;15.87;87.19;96816.06;29395;202;63009;-63
2021/07/27 00:41:29;;;;;;;0.40;0.40;;;;;;;15.86;87.04;96809.81;29395;336;63004;-65
2021/07/27 00:42:00;;;;;;;0.40;0.40;;;;;;;15.85;87.19;96819.12;29395;375;63008;-55
2021/07/27 00:42:40;;;;;;;0.50;0.50;;;;;;;15.84;87.24;96816.72;29395;243;63005;-64
2021/07/27 00:43:13;;;;;;;0.40;0.40;;;;;;;15.83;87.32;96815.94;29395;197;63009;-64
2021/07/27 00:43:44;;;;;;;0.40;0.40;;;;;;;15.81;87.44;96809.97;29395;234;63005;-65
2021/07/27 00:44:15;;;;;;;0.40;0.40;;;;;;;15.81;87.47;96818.19;29395;297;63023;-66
2021/07/27 00:44:47;;;;;;;0.47;0.47;;;;;;;15.80;87.44;96822.06;29395;232;63005;-66
2021/07/27 00:45:19;;;;;;;0.45;0.45;;;;;;;15.79;87.55;96814.16;29395;222;63009;-64
2021/07/27 00:45:51;;;;;;;0.40;0.40;;;;;;;15.78;87.70;96812.56;29394;203;64009;-65
2021/07/27 00:46:22;;;;;;;0.50;0.50;;;;;;;15.78;87.58;96812.56;29395;196;63009;-65
2021/07/27 00:46:53;;;;;;;0.50;0.50;;;;;;;15.74;87.55;96812.41;29395;204;63004;-66
2021/07/27 00:47:24;;;;;;;0.50;0.50;;;;;;;15.76;87.75;96807.41;29395;209;63009;-65
2021/07/27 00:47:55;;;;;;;0.40;0.40;;;;;;;15.74;87.77;96812.41;29395;288;63004;-66
2021/07/27 00:48:27;;;;;;;0.40;0.40;;;;;;;15.74;87.84;96815.16;29395;215;63018;-66
2021/07/27 00:49:00;;;;;;;0.40;0.40;;;;;;;15.73;87.86;96813.53;29394;230;64008;-58
2021/07/27 00:49:31;;;;;;;0.50;0.50;;;;;;;15.74;87.88;96815.16;29394;222;64013;-65
2021/07/27 00:50:03;;;;;;;0.50;0.50;;;;;;;15.73;87.72;96808.06;29395;222;63005;-64
2021/07/27 00:50:35;;;;;;;0.40;0.40;;;;;;;15.73;87.93;96806.16;29395;268;63009;-65
2021/07/27 00:51:06;;;;;;;0.50;0.50;;;;;;;15.72;88.03;96803.72;29395;289;63005;-65
2021/07/27 00:51:40;;;;;;;0.40;0.40;;;;;;;15.71;87.90;96813.06;29395;216;63009;-66
2021/07/27 00:52:11;;;;;;;2.80;2.55;;;;;;;15.71;88.08;96804.84;29395;214;63005;-65
2021/07/27 00:52:43;;;;;;;0.50;0.50;;;;;;;15.70;88.10;96806.78;29395;215;63009;-63
2021/07/27 00:53:14;;;;;;;0.45;0.45;;;;;;;15.70;88.11;96806.78;29395;334;63005;-65
2021/07/27 00:53:46;;;;;;;0.40;0.40;;;;;;;15.71;88.22;96802.13;29395;202;63025;-64
2021/07/27 00:54:17;;;;;;;0.50;0.50;;;;;;;15.71;nan;96802.13;29394;236;64009;-65
2021/07/27 00:54:49;;;;;;;0.50;0.50;;;;;;;15.71;88.27;96796.66;29395;204;63009;-57
2021/07/27 00:55:20;;;;;;;0.50;0.50;;;;;;;15.71;88.14;96802.13;29395;363;63013;-66
2021/07/27 00:55:53;;;;;;;0.40;0.40;;;;;;;15.70;88.15;96803.25;29395;197;63009;-66
2021/07/27 00:56:26;;;;;;;0.40;0.40;;;;;;;15.69;88.05;96802.44;29395;227;63004;-66
2021/07/27 00:56:57;;;;;;;0.40;0.40;;;;;;;15.68;88.25;96802.78;29395;222;63008;-66
2021/07/27 00:57:31;;;;;;;0.40;0.40;;;;;;;15.67;88.39;96801.16;29395;215;63005;-66
2021/07/27 00:58:04;;;;;;;0.40;0.40;;;;;;;15.65;88.56;96796.03;29395;264;63009;-66
2021/07/27 00:58:36;;;;;;;0.40;0.40;;;;;;;15.64;88.56;96801.81;29395;214;63005;-66
2021/07/27 00:59:09;;;;;;;0.65;0.65;;;;;;;15.61;88.63;96797.81;29394;267;64013;-66
2021/07/27 00:59:40;;;;;;;0.50;0.50;;;;;;;15.60;88.74;96795.41;29395;197;63005;-65
2021/07/27 01:00:13;;;;;;;0.50;0.50;;;;;;;15.59;88.87;96793.81;29395;220;63009;-64
2021/07/27 01:00:44;;;;;;;0.40;0.40;;;;;;;15.58;88.88;96797.69;29395;217;63005;-66
2021/07/27 01:01:15;;;;;;;0.40;0.40;;;;;;;15.58;88.75;96787.56;29395;229;63009;-65
2021/07/27 01:01:46;;;;;;;0.47;0.47;;;;;;;15.57;88.84;96791.41;29395;215;63004;-65
2021/07/27 01:02:19;;;;;;;0.50;0.50;;;;;;;15.58;88.87;96786.75;29395;289;63009;-65
2021/07/27 01:02:51;;;;;;;0.50;0.50;;;;;;;15.58;88.77;96789.47;29395;209;63004;-66
2021/07/27 01:03:23;;;;;;;0.50;0.50;;;;;;;15.58;88.77;96786.75;29395;217;63009;-65
2021/07/27 01:03:55;;;;;;;0.50;0.50;;;;;;;15.58;88.58;96786.75;29395;196;63004;-64
2021/07/27 01:04:26;;;;;;;0.50;0.50;;;;;;;15.58;88.45;96792.22;29394;242;64013;-64
2021/07/27 01:05:01;;;;;;;0.50;0.50;;;;;;;15.58;88.49;96787.56;29395;316;63005;-65
2021/07/27 01:05:32;;;;;;;0.40;0.40;;;;;;;15.58;88.52;96782.09;29395;240;63009;-65
2021/07/27 01:06:03;;;;;;;0.50;0.50;;;;;;;15.59;88.32;96794.63;29394;216;64009;-64
2021/07/27 01:06:34;;;;;;;0.43;0.43;;;;;;;15.60;88.26;96782.53;29395;209;63009;-64
2021/07/27 01:07:06;;;;;;;0.50;0.50;;;;;;;15.59;88.43;96780.16;29395;331;63005;-67
2021/07/27 01:07:38;;;;;;;0.50;0.50;;;;;;;15.59;88.26;96782.88;29395;216;63009;-65
2021/07/27 01:08:09;;;;;;;0.50;0.50;;;;;;;15.60;88.31;96785.25;29395;203;63005;-65
2021/07/27 01:08:41;;;;;;;0.40;0.40;;;;;;;15.61;88.40;96780.59;29395;242;63009;-65
2021/07/27 01:09:13;;;;;;;0.50;0.50;;;;;;;15.61;88.35;96783.34;29394;217;64002;-65
2021/07/27 01:09:46;;;;;;;0.50;0.50;;;;;;;15.61;88.25;96784.13;29395;346;63009;-66
2021/07/27 01:10:18;;;;;;;0.50;0.50;;;;;;;15.62;88.36;96782.19;29395;222;63004;-65
2021/07/27 01:10:49;;;;;;;0.50;0.50;;;;;;;15.63;88.40;96781.06;29395;220;63009;-55
2021/07/27 01:11:24;;;;;;;0.50;0.50;;;;;;;15.65;88.00;96792.50;29394;229;64009;-65
2021/07/27 01:11:59;;;;;;;0.50;0.50;;;;;;;15.66;87.76;96788.62;29395;234;63008;-62
2021/07/27 01:12:31;;;;;;;0.50;0.50;;;;;;;15.71;87.31;96788.44;29395;220;63005;-63
2021/07/27 01:13:04;;;;;;;0.40;0.40;;;;;;;15.74;86.99;96785.06;29395;377;63025;-64
2021/07/27 01:13:36;;;;;;;0.50;0.50;;;;;;;15.77;86.81;96778.94;29395;203;63015;-67
2021/07/27 01:14:09;;;;;;;0.40;0.40;;;;;;;15.79;86.43;96786.81;29395;202;63009;-67
2021/07/27 01:14:41;;;;;;;0.50;0.50;;;;;;;15.80;86.58;96788.41;29395;229;63012;-64
2021/07/27 01:15:13;;;;;;;0.40;0.40;;;;;;;15.80;86.61;96789.22;29395;316;63009;-65
2021/07/27 01:15:44;;;;;;;0.45;0.45;;;;;;;15.82;86.61;96786.16;29394;239;64009;-63
2021/07/27 01:16:16;;;;;;;0.45;0.45;;;;;;;15.84;86.73;96779.22;29394;211;64013;-58
2021/07/27 01:16:47;;;;;;;0.50;0.50;;;;;;;15.86;86.57;96787.91;29395;261;63004;-63
2021/07/27 01:17:21;;;;;;;0.50;0.50;;;;;;;15.87;86.39;96791.44;29394;204;64013;-66
2021/07/27 01:18:00;;;;;;;0.50;0.50;;;;;;;15.86;86.13;96785.19;29395;216;63009;-67
2021/07/27 01:18:38;;;;;;;0.40;0.40;;;;;;;15.87;86.09;96789.53;29395;197;63009;-66
2021/07/27 01:19:24;;;;;;;0.40;0.40;;;;;;;15.86;86.31;96790.66;29395;209;63004;-66
2021/07/27 01:20:04;;;;;;;0.40;0.40;;;;;;;15.87;86.52;96788.72;29395;203;63009;-66
2021/07/27 01:37:36;;;;;;;0.50;0.50;;;;;;;15.83;86.41;96794.03;29396;213;63000;-65
2021/07/27 01:39:21;;;;;;;0.50;0.50;;;;;;;15.77;86.74;96795.34;29395;356;64009;-66
2021/07/27 01:39:55;;;;;;;0.50;0.50;;;;;;;15.76;86.95;96796.47;29396;265;63025;-64
2021/07/27 01:40:28;;;;;;;0.50;0.50;;;;;;;15.76;86.79;96799.22;29396;253;63004;-64
2021/07/27 01:42:12;;;;;;;0.50;0.50;;;;;;;15.75;86.74;96803.06;29396;264;63005;-67
2021/07/27 01:42:43;;;;;;;0.40;0.40;;;;;;;15.72;86.75;96810.00;29396;225;63009;-64
2021/07/27 01:43:19;;;;;;;0.50;0.50;;;;;;;15.71;86.78;96813.06;29396;200;63005;-66
2021/07/27 01:43:51;;;;;;;0.50;0.50;;;;;;;15.71;86.92;96805.66;29396;306;63009;-66
2021/07/27 01:44:22;;;;;;;0.50;0.50;;;;;;;15.71;86.90;96807.59;29395;202;64009;-60
2021/07/27 01:44:55;;;;;;;0.50;0.50;;;;;;;15.71;86.91;96813.06;29396;233;63009;-66
2021/07/27 01:45:27;;;;;;;0.50;0.50;;;;;;;15.70;87.36;96816.94;29395;314;64009;-66
2021/07/27 01:45:59;;;;;;;0.40;0.40;;;;;;;15.65;87.62;96814.37;29396;205;63009;-65
2021/07/27 01:46:34;;;;;;;0.40;0.40;;;;;;;15.64;87.74;96823.69;29396;203;63004;-66
2021/07/27 01:47:05;;;;;;;0.40;0.40;;;;;;;15.61;87.23;96821.63;29396;312;63009;-65
2021/07/27 01:47:36;;;;;;;0.47;0.47;;;;;;;15.59;87.15;96821.19;29396;263;63004;-65
2021/07/27 01:48:07;;;;;;;0.50;0.50;;;;;;;15.56;87.42;96822.63;29396;272;63009;-66
2021/07/27 01:48:39;;;;;;;0.55;0.55;;;;;;;15.55;87.45;96812.78;29396;268;63004;-65
2021/07/27 01:49:10;;;;;;;0.40;0.40;;;;;;;15.55;87.61;96818.25;29396;267;63008;-67
2021/07/27 01:49:43;;;;;;;0.50;0.50;;;;;;;15.53;87.47;96817.78;29396;211;63005;-66
2021/07/27 01:50:15;;;;;;;0.50;0.50;;;;;;;15.53;87.65;96822.44;29395;200;64014;-66
2021/07/27 01:50:46;;;;;;;0.40;0.40;;;;;;;15.51;87.46;96825.50;29396;197;63005;-64
2021/07/27 01:51:26;;;;;;;0.50;0.50;;;;;;;15.47;87.49;96823.75;29396;266;63009;-65
2021/07/27 01:51:57;;;;;;;0.50;0.50;;;;;;;15.46;87.30;96825.66;29396;326;63005;-65
2021/07/27 01:52:28;;;;;;;0.50;0.50;;;;;;;15.46;87.65;96831.16;29396;261;63009;-65
2021/07/27 01:53:27;;;;;;;0.37;0.37;;;;;;;15.45;87.79;96824.06;29396;262;63005;-67
2021/07/27 01:54:02;;;;;;;0.50;0.50;;;;;;;15.44;87.66;96822.47;29396;296;63009;-65
2021/07/27 01:54:45;;;;;;;0.50;0.50;;;;;;;15.41;87.51;96829.38;29396;218;63004;-65
2021/07/27 01:55:18;;;;;;;0.50;0.50;;;;;;;15.39;87.62;96828.09;29395;224;64013;-67
2021/07/27 01:55:50;;;;;;;0.50;0.50;;;;;;;15.36;87.76;96824.06;29395;197;64009;-66
2021/07/27 01:56:40;;;;;;;0.50;0.50;;;;;;;15.32;87.83;96823.13;29396;355;63013;-65
2021/07/27 01:57:12;;;;;;;0.40;0.40;;;;;;;15.31;87.85;96829.72;29396;199;63005;-65
2021/07/27 01:57:43;;;;;;;0.40;0.40;;;;;;;15.31;87.76;96829.72;29396;280;63009;-66
2021/07/27 01:58:15;;;;;;;0.50;0.50;;;;;;;15.29;87.85;96829.22;29396;222;63005;-66
2021/07/27 01:58:47;;;;;;;0.88;0.88;;;;;;;15.27;88.14;96831.47;29395;220;64013;-67
2021/07/27 01:59:18;;;;;;;0.50;0.50;;;;;;;15.27;88.42;96826.03;29396;204;63005;-67
2021/07/27 02:00:05;;;;;;;0.50;0.50;;;;;;;15.26;88.61;96818.94;29396;300;63009;-66
2021/07/27 02:00:37;;;;;;;0.40;0.40;;;;;;;15.25;88.58;96822.81;29396;232;63005;-66
2021/07/27 02:01:09;;;;;;;0.40;0.40;;;;;;;15.22;88.79;96820.75;29396;223;63016;-66
2021/07/27 02:01:40;;;;;;;0.40;0.40;;;;;;;15.22;89.29;96822.69;29396;218;63004;-67
2021/07/27 02:02:12;;;;;;;0.50;0.50;;;;;;;15.20;89.33;96820.28;29396;334;63004;-58
2021/07/27 02:02:43;;;;;;;0.40;0.40;;;;;;;15.19;89.06;96820.59;29396;277;63004;-67
2021/07/27 02:03:15;;;;;;;0.50;0.50;;;;;;;15.18;89.14;96822.53;29396;228;63009;-64
2021/07/27 02:03:46;;;;;;;0.43;0.43;;;;;;;15.17;89.20;96818.19;29395;205;64008;-67
2021/07/27 02:04:18;;;;;;;0.40;0.40;;;;;;;15.16;89.42;96824.78;29396;236;63009;-67
2021/07/27 02:04:49;;;;;;;0.45;0.45;;;;;;;15.17;89.19;96831.84;29396;278;63005;-66
2021/07/27 02:05:20;;;;;;;0.50;0.50;;;;;;;15.17;89.09;96820.91;29396;268;63009;-65
2021/07/27 02:05:51;;;;;;;0.40;0.40;;;;;;;15.18;89.12;96825.25;29396;220;63005;-65
2021/07/27 02:06:22;;;;;;;0.50;0.50;;;;;;;15.17;88.99;96820.91;29396;209;63009;-65
2021/07/27 02:06:54;;;;;;;0.40;0.40;;;;;;;15.18;88.82;96822.53;29396;275;63005;-66
2021/07/27 02:07:25;;;;;;;0.50;0.50;;;;;;;15.18;89.08;96822.53;29396;196;63009;-65
2021/07/27 02:07:56;;;;;;;0.50;0.50;;;;;;;15.19;89.12;96824.13;29396;300;63005;-65
2021/07/27 02:08:28;;;;;;;0.50;0.50;;;;;;;15.19;88.90;96824.13;29395;334;64013;-64
2021/07/27 02:09:05;;;;;;;0.50;0.50;;;;;;;15.20;89.08;96824.94;29396;240;63015;-64
2021/07/27 02:09:40;;;;;;;0.40;0.40;;;;;;;15.18;88.96;96822.53;29395;254;64013;-66
2021/07/27 02:10:16;;;;;;;0.50;0.50;;;;;;;15.18;89.00;96822.53;29396;215;63004;-64
2021/07/27 02:10:56;;;;;;;0.50;0.50;;;;;;;15.19;89.01;96829.59;29395;213;64013;-65
2021/07/27 02:11:37;;;;;;;0.40;0.40;;;;;;;15.19;89.04;96821.41;29396;232;63004;-66
2021/07/27 02:12:23;;;;;;;;;;;;;;;15.19;89.05;96824.13;29997;983;6005;-64
2021/07/27 02:13:03;;;;;;;0.50;0.50;;;;;;;15.18;88.78;96822.53;29401;283;63009;-65
2021/07/27 02:15:35;;;;;;;0.50;0.50;;;;;;;15.17;88.84;96820.91;29375;254;63000;-66
2021/07/27 02:16:06;;;;;;;0.47;0.47;;;;;;;15.18;88.94;96821.72;29397;261;63004;-65
2021/07/27 02:16:38;;;;;;;0.50;0.50;;;;;;;15.18;88.83;96817.06;29397;241;63000;-65
2021/07/27 02:17:10;;;;;;;0.40;0.40;;;;;;;15.18;88.77;96822.53;29397;196;63004;-67
2021/07/27 02:17:41;;;;;;;0.50;0.50;;;;;;;15.17;88.83;96826.38;29397;231;63000;-66
2021/07/27 02:18:12;;;;;;;0.50;0.50;;;;;;;15.17;88.79;96826.38;29397;209;63004;-65
2021/07/27 02:18:43;;;;;;;0.50;0.50;;;;;;;15.17;88.82;96823.66;29397;288;63000;-66
2021/07/27 02:19:15;;;;;;;0.50;0.50;;;;;;;15.18;88.74;96817.06;29396;254;64001;-68
2021/07/27 02:19:46;;;;;;;0.50;0.50;;;;;;;15.19;88.85;96826.84;29396;234;63005;-66
2021/07/27 02:20:17;;;;;;;0.50;0.50;;;;;;;15.20;89.30;96825.72;29397;218;63009;-68
2021/07/27 02:21:08;;;;;;;0.50;0.50;;;;;;;15.18;89.25;96827.19;29397;219;63005;-66
2021/07/27 02:21:40;;;;;;;0.50;0.50;;;;;;;15.16;89.15;96830.25;29419;310;63009;-65
2021/07/27 02:22:13;;;;;;;0.50;0.50;;;;;;;15.14;89.06;96827.03;29397;205;63010;-66
2021/07/27 02:22:46;;;;;;;0.50;0.50;;;;;;;15.15;89.22;96828.63;29397;255;63009;-66
2021/07/27 02:23:18;;;;;;;0.50;0.50;;;;;;;15.16;89.33;96819.31;29397;280;63005;-67
2021/07/27 02:23:50;;;;;;;0.50;0.50;;;;;;;15.18;89.11;96827.19;29397;215;63009;-66
2021/07/27 02:24:22;;;;;;;0.50;0.50;;;;;;;15.15;89.07;96812.22;29396;208;64004;-66
2021/07/27 02:24:53;;;;;;;0.40;0.40;;;;;;;15.22;88.84;96828.16;29397;213;63009;-66
2021/07/27 02:25:24;;;;;;;0.50;0.50;;;;;;;15.22;88.86;96837.16;29397;373;63004;-65
2021/07/27 02:25:56;;;;;;;0.50;0.50;;;;;;;15.23;88.59;96830.56;29397;331;63009;-66
2021/07/27 02:26:27;;;;;;;0.98;0.98;;;;;;;15.24;88.57;96832.16;29397;291;63004;-66
2021/07/27 02:26:59;;;;;;;0.50;0.50;;;;;;;15.23;88.80;96830.56;29397;197;63009;-66
2021/07/27 02:27:30;;;;;;;0.50;0.50;;;;;;;15.21;88.82;96832.81;29397;225;63005;-66
2021/07/27 02:28:02;;;;;;;0.50;0.50;;;;;;;15.20;88.68;96833.94;29397;200;63009;-65
2021/07/27 02:28:33;;;;;;;0.50;0.50;;;;;;;15.21;88.84;96832.00;29396;233;64005;-65
2021/07/27 02:29:04;;;;;;;0.50;0.50;;;;;;;15.21;88.72;96832.81;29396;223;64028;-66
2021/07/27 02:29:36;;;;;;;0.50;0.50;;;;;;;15.22;88.87;96831.69;29396;203;63007;-65
2021/07/27 02:30:08;;;;;;;0.50;0.50;;;;;;;15.21;88.85;96827.34;29397;287;63016;-65
2021/07/27 02:30:55;;;;;;;0.50;0.50;;;;;;;15.22;88.83;96828.94;29396;210;63005;-65
2021/07/27 02:31:42;;;;;;;0.50;0.50;;;;;;;15.20;88.81;96831.19;29396;218;63009;-65
2021/07/27 02:32:14;;;;;;;0.50;0.50;;;;;;;15.21;89.03;96830.06;29396;215;63015;-67
2021/07/27 02:32:45;;;;;;;0.40;0.40;;;;;;;15.20;88.97;96833.94;29396;337;63009;-64
2021/07/27 02:33:20;;;;;;;0.40;0.40;;;;;;;15.19;88.90;96829.59;29396;290;63004;-65
2021/07/27 02:33:51;;;;;;;0.50;0.50;;;;;;;15.19;88.99;96821.41;29396;217;63008;-64
2021/07/27 02:34:22;;;;;;;0.50;0.50;;;;;;;15.17;89.29;96826.38;29395;303;64004;-66
2021/07/27 02:34:56;;;;;;;0.50;0.50;;;;;;;15.18;89.24;96829.91;29396;250;63009;-66
2021/07/27 02:35:36;;;;;;;0.50;0.50;;;;;;;15.16;88.94;96830.25;29396;197;63005;-67
2021/07/27 02:36:07;;;;;;;0.50;0.50;;;;;;;15.16;89.01;96830.25;29396;230;63026;-65
2021/07/27 02:36:38;;;;;;;0.50;0.50;;;;;;;15.16;89.02;96832.97;29396;216;63005;-66
2021/07/27 02:37:09;;;;;;;0.50;0.50;;;;;;;15.17;88.86;96828.31;29395;212;64009;-66
2021/07/27 02:37:40;;;;;;;0.50;0.50;;;;;;;15.16;89.11;96824.78;29396;225;63005;-58
2021/07/27 02:38:12;;;;;;;0.50;0.50;;;;;;;15.17;89.06;96828.31;29395;218;64009;-65
2021/07/27 02:38:46;;;;;;;0.50;0.50;;;;;;;15.17;89.06;96828.31;29396;219;63004;-66
2021/07/27 02:39:17;;;;;;;0.50;0.50;;;;;;;15.18;89.02;96821.72;29396;220;63009;-67
2021/07/27 02:39:49;;;;;;;0.50;0.50;;;;;;;15.17;89.16;96826.38;29396;213;63004;-65
2021/07/27 02:40:20;;;;;;;0.40;0.40;;;;;;;15.17;88.84;96817.38;29396;214;63009;-67
2021/07/27 02:40:51;;;;;;;0.50;0.50;;;;;;;15.15;88.79;96823.16;29396;206;63004;-67
2021/07/27 02:41:33;;;;;;;0.45;0.45;;;;;;;15.15;88.58;96825.91;29396;196;63008;-66
2021/07/27 02:42:04;;;;;;;0.40;0.40;;;;;;;15.14;88.67;96829.75;29395;202;64005;-66
2021/07/27 02:42:35;;;;;;;0.50;0.50;;;;;;;15.15;88.40;96823.16;29396;271;63009;-65
2021/07/27 02:43:07;;;;;;;0.50;0.50;;;;;;;15.16;88.35;96821.22;29396;293;63005;-65
2021/07/27 02:43:39;;;;;;;0.50;0.50;;;;;;;15.18;88.42;96816.25;29396;223;63009;-67
2021/07/27 02:44:11;;;;;;;0.50;0.50;;;;;;;15.18;88.57;96816.25;29396;266;63005;-65
2021/07/27 02:44:42;;;;;;;0.40;0.40;;;;;;;15.19;88.52;96818.66;29396;273;63009;-67
2021/07/27 02:45:14;;;;;;;0.50;0.50;;;;;;;15.19;88.87;96809.66;29395;307;64005;-65
2021/07/27 02:45:45;;;;;;;0.50;0.50;;;;;;;15.18;88.65;96817.06;29396;239;63009;-68
2021/07/27 02:46:17;;;;;;;0.50;0.50;;;;;;;15.17;88.36;96815.44;29396;243;63004;-65
2021/07/27 02:46:48;;;;;;;0.50;0.50;;;;;;;15.17;88.49;96815.44;29396;351;63009;-64
2021/07/27 02:47:19;;;;;;;0.50;0.50;;;;;;;15.17;88.38;96814.66;29396;227;63004;-65
2021/07/27 02:47:51;;;;;;;0.50;0.50;;;;;;;15.15;88.47;96811.44;29396;239;63009;-64
2021/07/27 02:48:23;;;;;;;0.50;0.50;;;;;;;15.13;88.77;96803.56;29396;196;63004;-65
2021/07/27 02:49:04;;;;;;;0.50;0.50;;;;;;;15.14;88.78;96813.34;29396;219;63009;-65
2021/07/27 02:49:35;;;;;;;0.50;0.50;;;;;;;15.14;88.80;96810.62;29417;363;64005;-65
2021/07/27 02:50:11;;;;;;;0.50;0.50;;;;;;;15.14;88.81;96810.62;29395;197;64009;-64
2021/07/27 02:50:47;;;;;;;0.50;0.50;;;;;;;15.16;89.00;96813.84;29396;197;63005;-65
2021/07/27 02:51:19;;;;;;;0.50;0.50;;;;;;;15.17;88.83;96809.19;29396;309;63009;-65
2021/07/27 02:51:51;;;;;;;0.50;0.50;;;;;;;15.18;88.71;96806.13;29396;257;63017;-65
2021/07/27 02:52:22;;;;;;;0.50;0.50;;;;;;;15.21;88.95;96813.66;29396;287;63009;-63
2021/07/27 02:52:54;;;;;;;0.50;0.50;;;;;;;15.22;88.97;96807.09;29396;217;63005;-65
2021/07/27 02:53:29;;;;;;;0.50;0.50;;;;;;;15.23;88.64;96814.16;29396;292;63009;-66
2021/07/27 02:54:00;;;;;;;0.50;0.50;;;;;;;15.25;88.97;96809.13;29395;205;64004;-64
2021/07/27 02:54:34;;;;;;;0.50;0.50;;;;;;;15.30;88.16;96814.44;29395;230;64009;-61
2021/07/27 02:55:07;;;;;;;0.50;0.50;;;;;;;15.33;87.70;96813.78;29396;218;63004;-65
2021/07/27 02:55:38;;;;;;;0.50;0.50;;;;;;;15.36;87.53;96802.22;29396;253;63008;-64
2021/07/27 02:56:09;;;;;;;0.50;0.50;;;;;;;15.38;87.32;96810.09;29396;209;63004;-62
2021/07/27 02:56:41;;;;;;;0.50;0.50;;;;;;;15.39;87.21;96812.50;29396;212;63009;-65
2021/07/27 02:57:12;;;;;;;0.50;0.50;;;;;;;15.40;87.00;96802.38;29396;203;63005;-66
2021/07/27 02:57:50;;;;;;;0.50;0.50;;;;;;;15.39;87.18;96801.56;29396;215;63009;-66
2021/07/27 02:58:31;;;;;;;0.50;0.50;;;;;;;15.40;87.05;96802.38;29395;283;64005;-65
2021/07/27 02:59:02;;;;;;;0.50;0.50;;;;;;;15.41;86.91;96803.97;29397;277;63009;-65